createdAt,value
2022-11-25T00:02:27.012Z,9.57
2022-11-25T00:08:29.188Z,9.57
2022-11-25T00:14:31.301Z,15.35
2022-11-25T00:20:33.692Z,9.15
2022-11-25T00:26:36.901Z,19.15
2022-11-25T00:32:39.580Z,13.93
2022-11-25T00:38:42.348Z,14.05
2022-11-25T00:44:44.663Z,16.23
2022-11-25T00:50:46.774Z,13.90
2022-11-25T00:56:48.985Z,15.87
2022-11-25T01:02:51.496Z,20.98
2022-11-25T01:08:54.254Z,25.17
2022-11-25T01:21:23.538Z,31.38
2022-11-25T01:27:25.727Z,36.55
2022-11-25T01:33:28.441Z,45.08
2022-11-25T01:39:33.136Z,48.42
2022-11-25T01:45:38.009Z,43.58
2022-11-25T01:52:01.935Z,47.42
2022-11-25T01:58:15.842Z,62.47
2022-11-25T02:04:19.674Z,58.80
2022-11-25T02:10:27.078Z,58.15
2022-11-25T02:16:29.688Z,44.88
2022-11-25T02:28:47.193Z,41.83
2022-11-25T02:34:50.762Z,52.28
2022-11-25T02:41:03.905Z,57.92
2022-11-25T02:47:06.363Z,53.45
2022-11-25T02:53:08.857Z,59.13
2022-11-25T02:59:12.214Z,66.45
2022-11-25T03:05:15.030Z,51.88
2022-11-25T03:11:17.334Z,51.00
2022-11-25T03:17:19.899Z,61.17
2022-11-25T03:23:22.922Z,59.03
2022-11-25T03:29:28.849Z,60.78
2022-11-25T03:35:31.311Z,51.10
2022-11-25T03:41:33.870Z,49.28
2022-11-25T03:47:37.603Z,53.28
2022-11-25T03:53:39.915Z,45.22
2022-11-25T03:59:44.675Z,48.88
2022-11-25T04:05:46.977Z,48.35
2022-11-25T04:12:07.962Z,46.58
2022-11-25T04:18:21.341Z,33.97
2022-11-25T04:24:27.765Z,44.03
2022-11-25T04:30:30.353Z,44.10
2022-11-25T04:36:33.154Z,43.58
2022-11-25T04:42:38.236Z,34.13
2022-11-25T04:48:43.723Z,35.92
2022-11-25T04:54:46.375Z,37.10
2022-11-25T05:06:52.153Z,39.55
2022-11-25T05:12:55.855Z,44.22
2022-11-25T05:18:58.222Z,34.67
2022-11-25T05:25:02.405Z,55.03
2022-11-25T05:31:06.369Z,38.63
2022-11-25T05:37:09.924Z,34.10
2022-11-25T05:43:14.449Z,42.55
2022-11-25T05:49:18.435Z,32.65
2022-11-25T05:55:21.061Z,45.40
2022-11-25T06:01:24.285Z,32.00
2022-11-25T06:07:26.788Z,29.90
2022-11-25T06:13:29.701Z,27.70
2022-11-25T06:19:32.131Z,25.05
2022-11-25T06:25:34.538Z,17.67
2022-11-25T06:31:36.844Z,24.23
2022-11-25T06:37:51.674Z,34.95
2022-11-25T06:43:54.369Z,25.75
2022-11-25T06:49:56.839Z,29.13
2022-11-25T06:56:06.412Z,27.05
2022-11-25T07:02:12.581Z,25.58
2022-11-25T07:08:14.970Z,35.90
2022-11-25T07:14:17.964Z,26.23
2022-11-25T07:20:20.233Z,33.10
2022-11-25T07:26:25.740Z,34.88
2022-11-25T07:32:28.108Z,23.13
2022-11-25T07:38:30.362Z,29.90
2022-11-25T07:44:32.790Z,27.88
2022-11-25T07:50:58.234Z,27.67
2022-11-25T07:57:00.544Z,35.10
2022-11-25T08:03:02.815Z,28.10
2022-11-25T08:09:05.586Z,25.05
2022-11-25T08:21:12.165Z,27.17
2022-11-25T08:27:14.538Z,34.72
2022-11-25T08:33:16.897Z,36.88
2022-11-25T08:39:51.978Z,27.85
2022-11-25T08:45:43.898Z,34.25
2022-11-25T08:57:48.464Z,29.00
2022-11-25T09:03:52.173Z,42.20
2022-11-25T09:09:54.335Z,34.08
2022-11-25T09:15:57.661Z,45.72
2022-11-25T09:21:59.873Z,28.25
2022-11-25T09:28:02.546Z,39.17
2022-11-25T09:40:08.968Z,33.15
2022-11-25T09:46:35.896Z,37.40
2022-11-25T09:52:58.197Z,37.63
2022-11-25T09:59:07.498Z,39.83
2022-11-25T10:05:27.337Z,45.47
2022-11-25T10:11:56.541Z,41.80
2022-11-25T10:18:10.764Z,45.17
2022-11-25T10:24:18.759Z,47.92
2022-11-25T10:30:58.933Z,47.00
2022-11-25T10:37:05.560Z,58.40
2022-11-25T10:43:14.398Z,34.95
2022-11-25T10:49:36.444Z,37.67
2022-11-25T10:55:38.695Z,48.55
2022-11-25T11:01:40.853Z,49.78
2022-11-25T11:07:45.496Z,39.40
2022-11-25T11:13:49.109Z,39.20
2022-11-25T11:20:09.489Z,41.72
2022-11-25T11:26:23.681Z,29.65
2022-11-25T11:32:28.563Z,27.10
2022-11-25T11:38:38.260Z,37.05
2022-11-25T11:45:04.847Z,39.30
2022-11-25T11:51:31.688Z,28.13
2022-11-25T11:57:33.803Z,29.95
2022-11-25T12:03:42.326Z,33.78
2022-11-25T12:09:55.656Z,44.13
2022-11-25T12:16:48.629Z,44.63
2022-11-25T12:23:06.138Z,34.15
2022-11-25T12:29:23.181Z,46.95
2022-11-25T12:35:46.872Z,50.33
2022-11-25T12:41:56.377Z,41.33
2022-11-25T12:47:58.495Z,44.47
2022-11-25T12:54:41.811Z,43.88
2022-11-25T13:00:47.219Z,33.25
2022-11-25T13:07:12.701Z,37.47
2022-11-25T13:13:27.759Z,44.72
2022-11-25T13:19:30.684Z,32.70
2022-11-25T13:25:33.468Z,33.65
2022-11-25T13:38:02.020Z,38.03
2022-11-25T13:44:04.277Z,66.70
2022-11-25T13:50:22.428Z,34.80
2022-11-25T13:56:28.112Z,48.88
2022-11-25T14:02:36.421Z,41.70
2022-11-25T14:08:53.361Z,41.80
2022-11-25T14:15:11.138Z,35.05
2022-11-25T14:21:41.330Z,60.75
2022-11-25T14:27:49.539Z,37.65
2022-11-25T14:33:57.478Z,46.72
2022-11-25T14:40:14.649Z,43.67
2022-11-25T14:46:21.206Z,36.17
2022-11-25T14:52:27.495Z,51.80
2022-11-25T14:58:31.196Z,47.83
2022-11-25T15:04:34.158Z,43.45
2022-11-25T15:10:57.729Z,48.38
2022-11-25T15:23:03.563Z,51.70
2022-11-25T15:29:12.577Z,54.40
2022-11-25T15:35:21.628Z,61.30
2022-11-25T15:41:34.057Z,57.50
2022-11-25T15:47:36.594Z,64.60
2022-11-25T15:53:39.614Z,56.92
2022-11-25T15:59:51.873Z,51.15
2022-11-25T16:05:56.199Z,71.50
2022-11-25T16:12:06.987Z,67.00
2022-11-25T16:18:38.697Z,58.53
2022-11-25T16:24:50.899Z,74.15
2022-11-25T16:30:57.850Z,76.20
2022-11-25T16:37:01.462Z,84.72
2022-11-25T16:43:04.175Z,67.63
2022-11-25T16:55:11.247Z,95.88
2022-11-25T17:07:34.852Z,89.38
2022-11-25T17:13:40.005Z,89.28
2022-11-25T17:19:42.124Z,75.78
2022-11-25T17:25:48.719Z,95.10
2022-11-25T17:31:56.732Z,69.65
2022-11-25T17:38:01.109Z,97.78
2022-11-25T17:50:22.293Z,61.40
2022-11-25T17:56:29.967Z,78.50
2022-11-25T18:02:32.949Z,65.20
2022-11-25T18:08:35.296Z,92.65
2022-11-25T18:14:38.889Z,90.20
2022-11-25T18:20:41.375Z,74.13
2022-11-25T18:26:47.570Z,73.80
2022-11-25T18:32:49.759Z,141.77
2022-11-25T18:38:51.934Z,123.55
2022-11-25T18:44:56.251Z,105.70
2022-11-25T18:50:58.418Z,99.35
2022-11-25T18:57:00.991Z,96.43
2022-11-25T19:03:03.604Z,85.93
2022-11-25T19:09:07.166Z,115.75
2022-11-25T19:15:11.560Z,134.15
2022-11-25T19:21:18.214Z,114.95
2022-11-25T19:27:24.993Z,108.78
2022-11-25T19:33:36.268Z,112.30
2022-11-25T19:39:38.332Z,83.70
2022-11-25T19:45:40.676Z,75.85
2022-11-25T19:51:43.435Z,75.00
2022-11-25T19:57:45.961Z,81.55
2022-11-25T20:15:56.214Z,62.30
2022-11-25T20:21:58.533Z,57.35
2022-11-25T20:28:00.669Z,58.13
2022-11-25T20:34:02.896Z,56.65
2022-11-25T20:40:10.655Z,67.40
2022-11-25T20:46:18.720Z,60.70
2022-11-25T20:52:28.067Z,74.72
2022-11-25T20:58:32.129Z,65.65
2022-11-25T21:04:34.632Z,62.67
2022-11-25T21:10:37.039Z,67.35
2022-11-25T21:16:39.184Z,63.92
2022-11-25T21:22:45.014Z,73.70
2022-11-25T21:28:48.936Z,68.28
2022-11-25T21:34:51.049Z,60.80
2022-11-25T21:40:58.717Z,57.97
2022-11-25T21:47:01.035Z,57.53
2022-11-25T21:53:03.292Z,60.10
2022-11-25T21:59:07.785Z,64.25
2022-11-25T22:05:18.647Z,63.83
2022-11-25T22:11:25.337Z,53.10
2022-11-25T22:17:28.193Z,42.05
2022-11-25T22:23:30.453Z,46.25
2022-11-25T22:29:36.226Z,51.20
2022-11-25T22:35:38.262Z,52.35
2022-11-25T22:41:42.663Z,45.23
2022-11-25T22:47:46.339Z,49.50
2022-11-25T22:53:48.532Z,37.03
2022-11-25T22:59:50.778Z,35.28
2022-11-25T23:05:54.531Z,42.17
2022-11-25T23:11:56.735Z,34.03
2022-11-25T23:18:01.433Z,33.50
2022-11-25T23:24:05.868Z,33.88
2022-11-25T23:30:09.781Z,38.42
2022-11-25T23:36:18.904Z,39.55
2022-11-25T23:42:21.683Z,38.53
2022-11-25T23:48:28.241Z,43.85
2022-11-25T23:54:45.781Z,30.92
